createdAt,value
2023-05-08T00:00:44.975Z,100185.31
2023-05-08T00:03:33.841Z,100188.77
2023-05-08T00:06:22.697Z,100186.05
2023-05-08T00:09:11.334Z,100186.95
2023-05-08T00:12:00.191Z,100189.91
2023-05-08T00:14:49.058Z,100189.95
2023-05-08T00:17:38.239Z,100193.30
2023-05-08T00:20:26.893Z,100199.00
2023-05-08T00:23:15.780Z,100200.19
2023-05-08T00:26:04.614Z,100200.59
2023-05-08T00:28:53.738Z,100197.05
2023-05-08T00:31:42.562Z,100196.02
2023-05-08T00:34:31.536Z,100195.27
2023-05-08T00:37:20.173Z,100193.34
2023-05-08T00:40:10.854Z,100195.54
2023-05-08T00:42:59.815Z,100196.45
2023-05-08T00:45:48.797Z,100204.88
2023-05-08T00:48:39.866Z,100209.27
2023-05-08T00:51:28.606Z,100206.05
2023-05-08T00:54:17.675Z,100208.70
2023-05-08T00:57:07.676Z,100209.13
2023-05-08T00:59:57.005Z,100209.48
2023-05-08T01:03:17.798Z,100211.84
2023-05-08T01:06:07.181Z,100210.24
2023-05-08T01:08:55.875Z,100214.67
2023-05-08T01:12:24.737Z,100216.27
2023-05-08T01:15:23.802Z,100223.24
2023-05-08T01:18:22.029Z,100229.73
2023-05-08T01:21:29.271Z,100234.64
2023-05-08T01:24:31.112Z,100237.77
2023-05-08T01:28:08.417Z,100240.70
2023-05-08T01:31:03.191Z,100244.35
2023-05-08T01:34:14.063Z,100244.64
2023-05-08T01:37:07.435Z,100245.52
2023-05-08T01:40:10.977Z,100243.85
2023-05-08T01:43:14.707Z,100240.80
2023-05-08T01:46:09.870Z,100241.73
2023-05-08T01:49:25.664Z,100244.42
2023-05-08T01:52:19.747Z,100245.98
2023-05-08T01:55:16.504Z,100248.60
2023-05-08T01:58:10.787Z,100246.08
2023-05-08T02:01:02.736Z,100242.97
2023-05-08T02:03:53.924Z,100244.16
2023-05-08T02:06:43.414Z,100248.26
2023-05-08T02:09:32.879Z,100246.28
2023-05-08T02:12:23.126Z,100253.19
2023-05-08T02:15:13.906Z,100254.48
2023-05-08T02:18:05.578Z,100253.88
2023-05-08T02:20:56.471Z,100252.58
2023-05-08T02:23:46.893Z,100252.67
2023-05-08T02:26:36.923Z,100250.30
2023-05-08T02:29:26.397Z,100252.68
2023-05-08T02:32:16.435Z,100259.48
2023-05-08T02:35:06.021Z,100260.52
2023-05-08T02:37:56.602Z,100257.23
2023-05-08T02:40:51.450Z,100257.88
2023-05-08T02:43:40.387Z,100261.86
2023-05-08T02:46:39.872Z,100258.52
2023-05-08T02:49:37.889Z,100256.06
2023-05-08T02:52:35.259Z,100256.40
2023-05-08T02:55:36.354Z,100258.30
2023-05-08T02:58:35.193Z,100261.65
2023-05-08T03:01:24.448Z,100256.98
2023-05-08T03:04:22.685Z,100254.85
2023-05-08T03:07:12.955Z,100249.42
2023-05-08T03:10:11.379Z,100248.52
2023-05-08T03:13:05.027Z,100250.23
2023-05-08T03:16:01.271Z,100248.97
2023-05-08T03:18:55.000Z,100250.25
2023-05-08T03:21:44.684Z,100252.76
2023-05-08T03:24:36.600Z,100259.26
2023-05-08T03:27:26.389Z,100257.60
2023-05-08T03:30:16.274Z,100261.56
2023-05-08T03:33:09.077Z,100267.70
2023-05-08T03:35:57.920Z,100269.48
2023-05-08T03:38:46.751Z,100269.77
2023-05-08T03:41:35.484Z,100269.23
2023-05-08T03:44:25.469Z,100267.85
2023-05-08T03:47:15.024Z,100273.51
2023-05-08T03:50:04.040Z,100270.70
2023-05-08T03:52:53.178Z,100276.02
2023-05-08T03:55:42.312Z,100279.29
2023-05-08T03:58:41.842Z,100284.29
2023-05-08T04:01:44.544Z,100286.09
2023-05-08T04:04:44.471Z,100287.80
2023-05-08T04:07:43.035Z,100290.48
2023-05-08T04:10:41.491Z,100295.49
2023-05-08T04:13:32.573Z,100294.32
2023-05-08T04:16:25.488Z,100303.83
2023-05-08T04:19:27.685Z,100308.34
2023-05-08T04:22:20.003Z,100310.45
2023-05-08T04:25:11.416Z,100317.11
2023-05-08T04:28:02.603Z,100321.22
2023-05-08T04:30:53.162Z,100325.42
2023-05-08T04:33:44.516Z,100328.12
2023-05-08T04:36:34.308Z,100327.21
2023-05-08T04:39:24.572Z,100329.45
2023-05-08T04:42:13.836Z,100336.24
2023-05-08T04:45:02.692Z,100336.13
2023-05-08T04:47:52.024Z,100333.14
2023-05-08T04:50:41.347Z,100338.20
2023-05-08T04:53:30.345Z,100344.70
2023-05-08T04:56:19.424Z,100351.19
2023-05-08T04:59:08.275Z,100362.45
2023-05-08T05:01:58.720Z,100362.52
2023-05-08T05:04:47.676Z,100364.84
2023-05-08T05:07:37.710Z,100363.17
2023-05-08T05:10:27.365Z,100367.26
2023-05-08T05:13:16.918Z,100365.69
2023-05-08T05:16:05.871Z,100370.27
2023-05-08T05:18:54.502Z,100373.91
2023-05-08T05:21:43.538Z,100383.71
2023-05-08T05:24:32.418Z,100384.17
2023-05-08T05:27:21.442Z,100387.06
2023-05-08T05:30:10.686Z,100389.70
2023-05-08T05:33:00.211Z,100391.01
2023-05-08T05:35:49.042Z,100387.64
2023-05-08T05:38:37.870Z,100392.14
2023-05-08T05:41:27.294Z,100398.54
2023-05-08T05:44:16.465Z,100401.04
2023-05-08T05:47:10.246Z,100407.52
2023-05-08T05:49:59.814Z,100413.02
2023-05-08T05:52:48.578Z,100414.59
2023-05-08T05:55:38.335Z,100416.55
2023-05-08T05:58:28.629Z,100417.81
2023-05-08T06:01:17.613Z,100427.04
2023-05-08T06:04:06.412Z,100428.05
2023-05-08T06:06:55.365Z,100429.43
2023-05-08T06:09:44.055Z,100432.68
2023-05-08T06:12:32.674Z,100432.39
2023-05-08T06:15:21.796Z,100431.88
2023-05-08T06:18:10.501Z,100433.79
2023-05-08T06:20:59.825Z,100435.05
2023-05-08T06:23:49.151Z,100435.95
2023-05-08T06:26:38.089Z,100439.14
2023-05-08T06:29:27.029Z,100442.04
2023-05-08T06:32:15.848Z,100444.35
2023-05-08T06:35:04.874Z,100442.39
2023-05-08T06:37:53.529Z,100440.43
2023-05-08T06:40:46.292Z,100441.06
2023-05-08T06:43:35.109Z,100442.56
2023-05-08T06:46:24.005Z,100447.06
2023-05-08T06:49:13.065Z,100447.67
2023-05-08T06:52:01.839Z,100446.02
2023-05-08T06:54:50.726Z,100449.45
2023-05-08T06:57:39.442Z,100450.70
2023-05-08T07:00:28.208Z,100448.20
2023-05-08T07:03:16.689Z,100443.28
2023-05-08T07:06:05.674Z,100444.42
2023-05-08T07:08:54.883Z,100447.15
2023-05-08T07:11:43.730Z,100444.59
2023-05-08T07:14:32.479Z,100444.18
2023-05-08T07:17:21.255Z,100449.75
2023-05-08T07:20:10.148Z,100446.19
2023-05-08T07:22:59.361Z,100447.72
2023-05-08T07:25:48.107Z,100447.04
2023-05-08T07:28:36.970Z,100445.08
2023-05-08T07:31:26.598Z,100445.09
2023-05-08T07:34:15.504Z,100442.89
2023-05-08T07:37:04.062Z,100449.89
2023-05-08T07:39:52.875Z,100448.73
2023-05-08T07:42:45.592Z,100448.70
2023-05-08T07:45:36.089Z,100442.35
2023-05-08T07:48:24.704Z,100448.65
2023-05-08T07:51:14.246Z,100448.38
2023-05-08T07:54:02.808Z,100447.67
2023-05-08T07:56:51.562Z,100445.04
2023-05-08T07:59:40.621Z,100443.45
2023-05-08T08:02:29.432Z,100438.94
2023-05-08T08:05:18.265Z,100440.61
2023-05-08T08:08:07.117Z,100439.14
2023-05-08T08:10:55.872Z,100447.36
2023-05-08T08:13:44.579Z,100443.59
2023-05-08T08:16:33.491Z,100439.86
2023-05-08T08:19:22.159Z,100443.67
2023-05-08T08:22:10.820Z,100437.86
2023-05-08T08:24:59.801Z,100440.55
2023-05-08T08:27:48.519Z,100439.04
2023-05-08T08:30:37.210Z,100443.48
2023-05-08T08:33:28.850Z,100437.22
2023-05-08T08:36:17.546Z,100441.52
2023-05-08T08:39:06.327Z,100434.06
2023-05-08T08:41:55.148Z,100442.75
2023-05-08T08:44:44.092Z,100436.69
2023-05-08T08:47:37.756Z,100437.15
2023-05-08T08:50:27.476Z,100430.96
2023-05-08T08:53:26.264Z,100430.80
2023-05-08T08:56:17.895Z,100435.02
2023-05-08T08:59:08.664Z,100434.42
2023-05-08T09:02:01.325Z,100435.94
2023-05-08T09:04:50.126Z,100433.09
2023-05-08T09:07:41.110Z,100424.13
2023-05-08T09:10:29.797Z,100424.95
2023-05-08T09:13:19.920Z,100426.05
2023-05-08T09:16:08.833Z,100426.74
2023-05-08T09:18:57.683Z,100421.61
2023-05-08T09:21:46.901Z,100414.64
2023-05-08T09:24:54.612Z,100417.80
2023-05-08T09:27:43.232Z,100417.38
2023-05-08T09:30:31.790Z,100421.97
2023-05-08T09:33:22.100Z,100421.69
2023-05-08T09:36:27.884Z,100419.86
2023-05-08T09:39:23.640Z,100413.58
2023-05-08T09:42:12.470Z,100412.84
2023-05-08T09:45:01.218Z,100410.06
2023-05-08T09:47:50.029Z,100402.96
2023-05-08T09:50:38.579Z,100402.80
2023-05-08T09:53:33.286Z,100407.67
2023-05-08T09:56:31.409Z,100408.13
2023-05-08T09:59:28.834Z,100406.35
2023-05-08T10:02:20.219Z,100403.45
2023-05-08T10:05:26.627Z,100401.73
2023-05-08T10:08:23.717Z,100406.73
2023-05-08T10:11:19.997Z,100402.14
2023-05-08T10:14:10.025Z,100406.35
2023-05-08T10:17:01.574Z,100398.93
2023-05-08T10:19:57.501Z,100399.05
2023-05-08T10:22:49.065Z,100398.48
2023-05-08T10:25:43.568Z,100400.83
2023-05-08T10:29:07.207Z,100397.38
2023-05-08T10:31:58.973Z,100405.73
2023-05-08T10:34:54.240Z,100407.64
2023-05-08T10:37:45.905Z,100405.13
2023-05-08T10:40:35.038Z,100404.88
2023-05-08T10:43:25.473Z,100404.02
2023-05-08T10:46:37.585Z,100400.70
2023-05-08T10:49:47.955Z,100394.30
2023-05-08T10:52:45.061Z,100398.85
2023-05-08T10:55:37.531Z,100393.15
2023-05-08T10:58:34.046Z,100394.48
2023-05-08T11:01:22.867Z,100393.63
2023-05-08T11:04:21.231Z,100393.55
2023-05-08T11:07:10.118Z,100382.01
2023-05-08T11:10:13.386Z,100380.91
2023-05-08T11:13:04.394Z,100375.29
2023-05-08T11:15:53.169Z,100368.95
2023-05-08T11:19:19.908Z,100371.23
2023-05-08T11:22:29.645Z,100366.48
2023-05-08T11:25:19.303Z,100371.37
2023-05-08T11:28:08.131Z,100363.41
2023-05-08T11:30:57.074Z,100362.13
2023-05-08T11:33:46.514Z,100364.54
2023-05-08T11:36:36.869Z,100356.11
2023-05-08T11:39:25.640Z,100364.08
2023-05-08T11:42:29.880Z,100360.63
2023-05-08T11:45:19.722Z,100353.55
2023-05-08T11:48:14.269Z,100359.85
2023-05-08T11:51:03.708Z,100352.27
2023-05-08T11:53:52.590Z,100350.79
2023-05-08T11:56:41.263Z,100347.27
2023-05-08T11:59:35.531Z,100344.79
2023-05-08T12:02:44.206Z,100339.89
2023-05-08T12:05:32.987Z,100340.94
2023-05-08T12:08:21.515Z,100335.63
2023-05-08T12:11:10.505Z,100336.26
2023-05-08T12:13:59.587Z,100330.14
2023-05-08T12:16:48.272Z,100333.08
2023-05-08T12:19:37.261Z,100335.54
2023-05-08T12:22:26.480Z,100347.08
2023-05-08T12:25:17.650Z,100342.61
2023-05-08T12:28:07.543Z,100349.42
2023-05-08T12:30:56.619Z,100336.38
2023-05-08T12:33:45.535Z,100330.77
2023-05-08T12:36:37.890Z,100335.09
2023-05-08T12:39:26.894Z,100332.37
2023-05-08T12:42:15.769Z,100330.27
2023-05-08T12:45:05.135Z,100328.07
2023-05-08T12:47:59.081Z,100330.38
2023-05-08T12:50:48.013Z,100331.28
2023-05-08T12:53:37.932Z,100329.98
2023-05-08T12:56:26.686Z,100333.00
2023-05-08T12:59:15.721Z,100325.11
2023-05-08T13:02:04.625Z,100326.70
2023-05-08T13:04:56.902Z,100326.52
2023-05-08T13:07:45.650Z,100323.36
2023-05-08T13:10:46.556Z,100312.56
2023-05-08T13:13:36.493Z,100311.73
2023-05-08T13:16:26.220Z,100310.22
2023-05-08T13:19:16.371Z,100311.46
2023-05-08T13:22:05.365Z,100311.73
2023-05-08T13:24:54.398Z,100308.52
2023-05-08T13:27:43.164Z,100313.48
2023-05-08T13:30:31.971Z,100306.51
2023-05-08T13:33:20.999Z,100304.79
2023-05-08T13:36:09.803Z,100295.55
2023-05-08T13:38:58.525Z,100291.67
2023-05-08T13:41:47.301Z,100294.68
2023-05-08T13:44:36.224Z,100294.96
2023-05-08T13:47:25.298Z,100289.17
2023-05-08T13:50:16.400Z,100289.30
2023-05-08T13:53:06.184Z,100287.01
2023-05-08T13:55:54.899Z,100290.59
2023-05-08T13:58:43.866Z,100292.61
2023-05-08T14:01:32.605Z,100285.48
2023-05-08T14:04:21.388Z,100287.08
2023-05-08T14:07:10.499Z,100285.70
2023-05-08T14:09:59.546Z,100282.24
2023-05-08T14:12:48.582Z,100285.05
2023-05-08T14:15:38.084Z,100284.84
2023-05-08T14:18:26.997Z,100278.30
2023-05-08T14:21:15.680Z,100276.86
2023-05-08T14:24:04.848Z,100276.73
2023-05-08T14:26:54.222Z,100277.67
2023-05-08T14:29:43.371Z,100282.77
2023-05-08T14:32:32.087Z,100282.05
2023-05-08T14:35:20.976Z,100282.30
2023-05-08T14:38:12.975Z,100287.74
2023-05-08T14:41:04.474Z,100282.98
2023-05-08T14:43:53.466Z,100288.16
2023-05-08T14:46:42.710Z,100294.84
2023-05-08T14:49:38.248Z,100293.68
2023-05-08T14:52:27.667Z,100292.22
2023-05-08T14:58:29.112Z,100295.02
2023-05-08T15:01:18.203Z,100290.68
2023-05-08T15:04:07.146Z,100281.96
2023-05-08T15:06:55.862Z,100281.80
2023-05-08T15:09:44.725Z,100275.34
2023-05-08T15:12:33.756Z,100275.25
2023-05-08T15:15:22.876Z,100279.16
2023-05-08T15:18:11.604Z,100277.77
2023-05-08T15:21:00.581Z,100276.20
2023-05-08T15:23:49.387Z,100275.34
2023-05-08T15:26:37.863Z,100279.06
2023-05-08T15:29:29.398Z,100281.11
2023-05-08T15:32:18.351Z,100282.15
2023-05-08T15:35:07.535Z,100280.77
2023-05-08T15:37:56.139Z,100282.68
2023-05-08T15:40:44.986Z,100279.52
2023-05-08T15:43:33.807Z,100273.22
2023-05-08T15:46:23.144Z,100270.35
2023-05-08T15:49:12.138Z,100267.67
2023-05-08T15:52:00.769Z,100267.86
2023-05-08T15:54:50.498Z,100266.79
2023-05-08T15:57:39.195Z,100268.55
2023-05-08T16:00:36.841Z,100271.57
2023-05-08T16:03:33.848Z,100266.64
2023-05-08T16:06:22.962Z,100264.35
2023-05-08T16:09:11.852Z,100267.38
2023-05-08T16:12:02.474Z,100267.52
2023-05-08T16:14:51.216Z,100264.70
2023-05-08T16:17:39.937Z,100257.33
2023-05-08T16:20:28.844Z,100260.28
2023-05-08T16:23:17.874Z,100259.45
2023-05-08T16:26:06.479Z,100254.77
2023-05-08T16:28:55.304Z,100255.07
2023-05-08T16:31:43.969Z,100252.70
2023-05-08T16:34:32.666Z,100251.88
2023-05-08T16:37:21.413Z,100256.31
2023-05-08T16:40:10.760Z,100257.71
2023-05-08T16:42:59.477Z,100260.66
2023-05-08T16:45:51.453Z,100256.36
2023-05-08T16:48:40.335Z,100258.64
2023-05-08T16:51:29.069Z,100256.73
2023-05-08T16:54:17.771Z,100256.30
2023-05-08T16:57:06.437Z,100257.14
2023-05-08T16:59:55.076Z,100255.77
2023-05-08T17:02:44.131Z,100255.10
2023-05-08T17:05:33.737Z,100258.85
2023-05-08T17:08:22.408Z,100259.77
2023-05-08T17:11:11.110Z,100264.05
2023-05-08T17:13:59.849Z,100258.38
2023-05-08T17:16:51.103Z,100262.05
2023-05-08T17:19:39.916Z,100259.03
2023-05-08T17:22:28.568Z,100259.02
2023-05-08T17:25:17.676Z,100258.14
2023-05-08T17:28:06.504Z,100261.02
2023-05-08T17:30:55.351Z,100267.73
2023-05-08T17:33:44.041Z,100263.58
2023-05-08T17:36:32.804Z,100265.48
2023-05-08T17:39:22.026Z,100261.90
2023-05-08T17:42:10.621Z,100265.42
2023-05-08T17:44:59.450Z,100261.05
2023-05-08T17:47:48.351Z,100262.75
2023-05-08T17:50:39.523Z,100260.77
2023-05-08T17:53:32.103Z,100261.77
2023-05-08T17:56:21.359Z,100268.01
2023-05-08T17:59:10.010Z,100270.43
2023-05-08T18:01:58.647Z,100271.88
2023-05-08T18:04:47.705Z,100276.81
2023-05-08T18:07:36.492Z,100278.04
2023-05-08T18:10:25.581Z,100281.13
2023-05-08T18:13:14.446Z,100283.54
2023-05-08T18:16:03.465Z,100277.95
2023-05-08T18:18:52.391Z,100278.27
2023-05-08T18:21:41.202Z,100283.02
2023-05-08T18:24:29.942Z,100286.53
2023-05-08T18:27:18.800Z,100291.15
2023-05-08T18:30:08.545Z,100292.31
2023-05-08T18:32:57.660Z,100296.89
2023-05-08T18:35:46.578Z,100297.45
2023-05-08T18:38:36.510Z,100301.56
2023-05-08T18:41:25.106Z,100300.55
2023-05-08T18:44:14.059Z,100303.59
2023-05-08T18:47:02.845Z,100301.45
2023-05-08T18:49:52.680Z,100301.74
2023-05-08T18:52:41.437Z,100307.80
2023-05-08T18:55:30.039Z,100310.40
2023-05-08T18:58:18.895Z,100311.09
2023-05-08T19:01:07.930Z,100317.92
2023-05-08T19:03:56.719Z,100313.54
2023-05-08T19:06:45.927Z,100316.37
2023-05-08T19:09:35.038Z,100318.36
2023-05-08T19:12:24.127Z,100318.89
2023-05-08T19:15:14.071Z,100318.27
2023-05-08T19:18:03.768Z,100317.52
2023-05-08T19:20:53.038Z,100316.65
2023-05-08T19:23:42.563Z,100317.27
2023-05-08T19:26:31.428Z,100316.07
2023-05-08T19:29:20.110Z,100314.59
2023-05-08T19:32:08.864Z,100311.52
2023-05-08T19:34:58.058Z,100311.46
2023-05-08T19:37:46.909Z,100315.90
2023-05-08T19:40:44.835Z,100313.21
2023-05-08T19:43:44.208Z,100311.19
2023-05-08T19:46:33.565Z,100310.16
2023-05-08T19:49:22.729Z,100305.61
2023-05-08T19:52:11.814Z,100306.80
2023-05-08T19:55:00.654Z,100306.01
2023-05-08T19:57:49.588Z,100303.34
2023-05-08T20:00:39.052Z,100301.54
2023-05-08T20:03:28.507Z,100303.44
2023-05-08T20:06:19.709Z,100303.44
2023-05-08T20:09:08.822Z,100300.47
2023-05-08T20:11:57.526Z,100296.64
2023-05-08T20:14:48.911Z,100298.16
2023-05-08T20:17:37.780Z,100297.15
2023-05-08T20:20:30.974Z,100300.20
2023-05-08T20:23:19.862Z,100300.05
2023-05-08T20:26:10.503Z,100293.73
2023-05-08T20:28:59.762Z,100294.75
2023-05-08T20:31:49.189Z,100291.20
2023-05-08T20:34:37.767Z,100292.19
2023-05-08T20:37:26.417Z,100293.14
2023-05-08T20:40:15.660Z,100292.02
2023-05-08T20:43:04.648Z,100294.99
2023-05-08T20:45:53.450Z,100289.50
2023-05-08T20:48:42.487Z,100290.17
2023-05-08T20:51:32.202Z,100288.48
2023-05-08T20:54:21.729Z,100288.20
2023-05-08T20:57:10.622Z,100286.09
2023-05-08T20:59:59.420Z,100282.58
2023-05-08T21:02:48.341Z,100280.39
2023-05-08T21:05:37.171Z,100282.17
2023-05-08T21:08:28.898Z,100278.41
2023-05-08T21:11:18.058Z,100277.96
2023-05-08T21:14:07.033Z,100277.19
2023-05-08T21:16:55.796Z,100281.46
2023-05-08T21:19:44.593Z,100280.86
2023-05-08T21:22:34.020Z,100278.52
2023-05-08T21:25:35.356Z,100276.91
2023-05-08T21:28:24.095Z,100271.12
2023-05-08T21:31:12.740Z,100266.96
2023-05-08T21:34:02.798Z,100267.36
2023-05-08T21:36:51.496Z,100264.17
2023-05-08T21:39:41.588Z,100265.55
2023-05-08T21:42:31.060Z,100267.85
2023-05-08T21:45:19.772Z,100270.98
2023-05-08T21:48:08.570Z,100268.91
2023-05-08T21:50:57.542Z,100263.06
2023-05-08T21:53:46.275Z,100264.34
2023-05-08T21:56:35.092Z,100261.47
2023-05-08T21:59:23.796Z,100257.32
2023-05-08T22:02:13.047Z,100258.56
2023-05-08T22:05:03.429Z,100256.40
2023-05-08T22:07:52.390Z,100252.13
2023-05-08T22:10:44.389Z,100254.36
2023-05-08T22:13:33.199Z,100252.46
2023-05-08T22:16:21.960Z,100251.40
2023-05-08T22:19:11.565Z,100251.80
2023-05-08T22:22:00.204Z,100254.00
2023-05-08T22:24:49.011Z,100251.46
2023-05-08T22:27:37.627Z,100256.06
2023-05-08T22:30:26.339Z,100248.59
2023-05-08T22:33:15.105Z,100247.36
2023-05-08T22:36:03.983Z,100244.76
2023-05-08T22:38:52.714Z,100248.14
2023-05-08T22:41:41.359Z,100240.66
2023-05-08T22:44:30.568Z,100241.89
2023-05-08T22:47:19.336Z,100236.52
2023-05-08T22:50:09.259Z,100237.25
2023-05-08T22:52:58.065Z,100235.90
2023-05-08T22:55:46.944Z,100233.34
2023-05-08T22:58:35.794Z,100234.38
2023-05-08T23:01:25.030Z,100232.67
2023-05-08T23:04:13.968Z,100234.91
2023-05-08T23:07:02.561Z,100233.27
2023-05-08T23:09:51.171Z,100232.08
2023-05-08T23:12:40.372Z,100231.30
2023-05-08T23:15:29.147Z,100232.84
2023-05-08T23:18:17.869Z,100231.96
2023-05-08T23:21:07.551Z,100237.16
2023-05-08T23:23:56.555Z,100238.61
2023-05-08T23:26:48.456Z,100237.77
2023-05-08T23:29:37.098Z,100231.84
2023-05-08T23:32:26.010Z,100231.66
2023-05-08T23:35:14.856Z,100236.42
2023-05-08T23:38:03.766Z,100227.78
2023-05-08T23:40:52.491Z,100225.62
2023-05-08T23:43:41.255Z,100224.70
2023-05-08T23:46:29.905Z,100222.58
2023-05-08T23:49:19.105Z,100220.73
2023-05-08T23:52:08.584Z,100224.39
2023-05-08T23:54:57.399Z,100225.33
2023-05-08T23:57:46.355Z,100226.84
